Time;durP1;ratioP1;P1;durP2;ratioP2;P2;SDS_P1;SDS_P2;PMS_P1;PMS_P2;Temp;Humidity;BMP_temperature;BMP_pressure;BME280_temperature;BME280_humidity;BME280_pressure;Samples;Min_cycle;Max_cycle;Signal;HPM_P1;HPM_P2
2021/04/02 00:02:09;;;;;;;2.87;2.67;;;;;;;9.76;53.26;102355.91;6238303;28;20323;-56
2021/04/02 00:05:29;;;;;;;3.10;2.90;;;;;;;9.64;54.08;102356.56;6218734;28;20811;-55
2021/04/02 00:08:50;;;;;;;3.23;3.03;;;;;;;9.51;54.61;102354.56;6220004;28;20229;-50
2021/04/02 00:12:11;;;;;;;3.37;3.10;;;;;;;9.41;54.90;102353.50;6229931;28;20633;-53
2021/04/02 00:15:31;;;;;;;2.87;2.67;;;;;;;9.45;54.83;102346.66;6242141;28;20236;-54
2021/04/02 00:18:52;;;;;;;3.70;3.40;;;;;;;9.45;54.88;102344.03;6218208;28;20602;-55
2021/04/02 00:22:12;;;;;;;3.97;3.67;;;;;;;9.31;56.14;102340.31;6217897;28;20228;-52
2021/04/02 00:25:34;;;;;;;4.43;4.13;;;;;;;9.37;56.28;102351.69;6240344;28;20224;-50
2021/04/02 00:28:55;;;;;;;5.10;4.70;;;;;;;9.38;56.47;102340.47;6224866;28;20335;-54
2021/04/02 00:32:16;;;;;;;5.83;5.33;;;;;;;9.22;57.54;102341.84;6239923;28;20233;-51
2021/04/02 00:35:37;;;;;;;6.03;5.43;;;;;;;9.38;56.87;102349.97;6240265;28;20240;-53
2021/04/02 00:38:58;;;;;;;7.67;6.97;;;;;;;9.22;57.70;102340.97;6216918;28;20248;-52
2021/04/02 00:42:19;;;;;;;7.50;6.90;;;;;;;9.01;58.67;102343.97;6224585;28;20235;-49
2021/04/02 00:45:40;;;;;;;7.73;7.03;;;;;;;9.12;58.30;102346.81;6230183;28;20233;-54
2021/04/02 00:49:00;;;;;;;7.87;7.07;;;;;;;9.11;58.53;102343.38;6218129;28;20229;-49
2021/04/02 00:52:21;;;;;;;8.03;7.33;;;;;;;8.98;59.34;102349.13;6238577;28;20610;-54
2021/04/02 00:55:42;;;;;;;8.80;8.00;;;;;;;8.90;59.97;102351.56;6224567;28;20232;-53
2021/04/02 00:59:04;;;;;;;9.53;8.60;;;;;;;8.72;61.05;102352.00;6216938;28;20252;-53
2021/04/02 01:02:26;;;;;;;11.40;10.20;;;;;;;8.84;60.40;102352.31;6235068;28;20224;-51
2021/04/02 01:05:48;;;;;;;11.20;10.13;;;;;;;9.01;59.71;102351.78;6240500;28;20240;-54
2021/04/02 01:09:09;;;;;;;11.13;10.13;;;;;;;8.78;60.72;102354.75;6239908;28;20228;-53
2021/04/02 01:12:33;;;;;;;11.67;10.57;;;;;;;8.61;61.28;102345.69;6234139;28;20232;-51
2021/04/02 01:16:00;;;;;;;13.10;11.50;;;;;;;8.58;61.58;102345.63;6238594;28;20232;-55
2021/04/02 01:19:29;;;;;;;12.93;11.63;;;;;;;8.59;61.19;102339.59;6235132;28;20319;-51
2021/04/02 01:22:53;;;;;;;11.73;10.63;;;;;;;8.67;60.52;102343.25;6234241;28;20228;-53
2021/04/02 01:26:23;;;;;;;14.27;12.83;;;;;;;8.51;60.99;102339.41;6239413;28;20252;-50
2021/04/02 01:29:54;;;;;;;14.97;13.47;;;;;;;8.30;61.85;102347.53;6224626;28;20240;-52
2021/04/02 01:33:16;;;;;;;15.80;12.73;;;;;;;8.23;62.39;102337.81;6240252;28;20598;-53
2021/04/02 01:36:40;;;;;;;15.77;13.77;;;;;;;8.34;61.67;102341.56;6228544;28;20241;-47
2021/04/02 01:40:06;;;;;;;15.20;13.60;;;;;;;8.25;62.26;102325.75;6215986;28;20260;-52
2021/04/02 01:43:33;;;;;;;15.17;13.50;;;;;;;8.21;63.13;102326.53;6226922;28;20240;-52
2021/04/02 01:46:56;;;;;;;13.83;12.43;;;;;;;8.43;62.40;102320.16;6230020;28;20603;-48
2021/04/02 01:50:19;;;;;;;14.27;12.77;;;;;;;8.50;61.61;102326.38;6208185;28;20229;-53
2021/04/02 01:53:44;;;;;;;15.00;13.47;;;;;;;8.31;63.05;102330.22;6215634;28;20970;-54
2021/04/02 01:57:08;;;;;;;14.30;12.80;;;;;;;8.28;63.13;102336.22;6229525;28;20307;-50
2021/04/02 02:00:36;;;;;;;13.60;11.87;;;;;;;8.32;62.69;102332.88;6233221;28;20251;-54
2021/04/02 02:04:00;;;;;;;19.33;13.57;;;;;;;8.41;62.25;102324.41;6240466;28;20285;-53
2021/04/02 02:07:23;;;;;;;18.10;15.97;;;;;;;8.17;63.36;102333.34;6220701;28;20245;-54
2021/04/02 02:10:57;;;;;;;18.87;16.87;;;;;;;8.25;63.35;102330.94;6215186;28;20343;-52
2021/04/02 02:14:19;;;;;;;18.20;12.50;;;;;;;8.17;63.63;102327.28;6215408;28;20233;-51
2021/04/02 02:17:57;;;;;;;15.40;13.87;;;;;;;8.17;63.54;102322.97;6239600;28;20266;-52
2021/04/02 02:21:22;;;;;;;13.27;11.40;;;;;;;8.00;64.09;102335.50;6218714;28;20232;-54
2021/04/02 02:57:32;;;;;;;18.43;16.43;;;;;;;8.23;63.97;102297.16;6188915;28;20691;-53
2021/04/02 03:00:54;;;;;;;20.37;17.00;;;;;;;8.24;63.90;102293.75;6237056;28;20236;-53
2021/04/02 03:04:16;;;;;;;19.23;17.17;;;;;;;8.27;63.83;102292.94;6233064;28;20713;-55
2021/04/02 03:07:40;;;;;;;19.13;17.13;;;;;;;8.33;63.37;102292.19;6243628;28;20232;-51
2021/04/02 03:11:01;;;;;;;17.73;15.27;;;;;;;8.14;63.67;102289.16;6219175;28;20618;-48
2021/04/02 03:14:25;;;;;;;17.93;14.80;;;;;;;8.25;63.46;102274.72;6242756;28;20259;-54
2021/04/02 03:17:51;;;;;;;17.17;15.37;;;;;;;8.19;63.38;102268.53;6225547;28;20229;-54
2021/04/02 03:21:13;;;;;;;16.73;14.93;;;;;;;8.23;63.74;102272.94;6211898;28;20558;-48
2021/04/02 03:24:37;;;;;;;17.13;15.20;;;;;;;8.00;64.52;102278.44;6218791;28;20638;-52
2021/04/02 03:28:01;;;;;;;17.67;15.87;;;;;;;8.11;64.62;102268.34;6238607;28;20243;-54
2021/04/02 03:31:38;;;;;;;16.40;14.57;;;;;;;8.22;64.23;102277.25;6225358;28;23000;-50
2021/04/02 03:35:02;;;;;;;17.80;14.63;;;;;;;8.12;65.14;102279.59;6218656;28;20226;-54
2021/04/02 03:38:26;;;;;;;16.37;13.87;;;;;;;8.08;64.87;102265.66;6237658;28;20324;-51
2021/04/02 03:41:51;;;;;;;17.10;15.20;;;;;;;7.25;67.54;102268.66;6209156;28;20221;-54
2021/04/02 03:45:15;;;;;;;20.00;15.83;;;;;;;7.75;66.52;102269.16;6223638;28;20244;-53
2021/04/02 03:48:40;;;;;;;16.83;14.97;;;;;;;7.91;65.41;102272.13;6217728;28;20241;-54
2021/04/02 03:52:07;;;;;;;16.17;14.43;;;;;;;7.51;67.09;102276.31;6234057;28;20241;-52
2021/04/02 03:55:29;;;;;;;14.67;13.20;;;;;;;7.93;65.73;102271.34;6234527;28;21909;-55
2021/04/02 03:58:51;;;;;;;16.07;14.43;;;;;;;7.80;66.08;102272.75;6217255;28;20236;-52
2021/04/02 04:02:17;;;;;;;14.87;13.17;;;;;;;7.67;66.22;102273.25;6235325;28;20233;-53
2021/04/02 04:05:43;;;;;;;12.50;11.30;;;;;;;7.55;66.69;102262.59;6242726;28;20232;-52
2021/04/02 04:09:11;;;;;;;12.03;10.90;;;;;;;7.47;66.42;102262.38;6242155;28;20232;-54
2021/04/02 04:12:36;;;;;;;11.63;10.63;;;;;;;7.66;65.95;102272.41;6236033;28;20232;-54
2021/04/02 04:16:03;;;;;;;12.93;11.73;;;;;;;7.63;65.75;102264.53;6212883;28;20686;-55
2021/04/02 04:19:24;;;;;;;13.47;12.23;;;;;;;7.50;65.62;102267.63;6215026;28;20606;-53
2021/04/02 04:22:51;;;;;;;14.90;13.23;;;;;;;7.51;65.59;102266.81;6231313;28;20233;-49
2021/04/02 04:26:13;;;;;;;13.97;12.67;;;;;;;7.47;65.96;102276.22;6228611;28;20233;-54
2021/04/02 04:29:37;;;;;;;12.83;11.63;;;;;;;7.64;65.07;102271.47;6229526;28;20315;-53
2021/04/02 04:33:01;;;;;;;13.37;12.17;;;;;;;7.57;64.55;102274.75;6240793;28;20225;-53
2021/04/02 04:36:22;;;;;;;13.37;12.00;;;;;;;7.63;64.31;102277.50;6242110;28;20236;-54
2021/04/02 04:39:45;;;;;;;13.10;11.90;;;;;;;7.39;64.79;102275.13;6237948;28;20229;-53
2021/04/02 04:43:10;;;;;;;14.37;13.03;;;;;;;7.37;64.07;102265.56;6239532;28;20681;-51
2021/04/02 04:46:32;;;;;;;14.30;12.83;;;;;;;6.96;65.21;102265.25;6241283;28;20237;-51
2021/04/02 04:49:52;;;;;;;15.30;11.57;;;;;;;6.88;64.93;102263.34;6229159;28;20245;-52
2021/04/02 04:53:17;;;;;;;12.13;11.13;;;;;;;6.68;65.27;102272.22;6217381;28;20272;-54
2021/04/02 04:56:40;;;;;;;12.37;11.17;;;;;;;7.05;63.96;102271.59;6217616;28;20248;-48
2021/04/02 05:00:01;;;;;;;12.17;10.97;;;;;;;6.93;64.11;102278.13;6224607;28;20224;-52
2021/04/02 05:03:25;;;;;;;11.67;10.57;;;;;;;6.78;64.05;102271.66;6238849;28;20642;-51
2021/04/02 05:06:49;;;;;;;9.97;9.07;;;;;;;6.25;65.13;102271.75;6242284;28;20619;-48
2021/04/02 05:10:11;;;;;;;11.77;10.53;;;;;;;6.35;65.13;102275.53;6221957;28;20225;-49
2021/04/02 05:13:33;;;;;;;11.40;10.40;;;;;;;6.51;64.51;102261.34;6230382;28;20275;-50
2021/04/02 05:16:55;;;;;;;12.80;9.67;;;;;;;6.31;64.84;102261.59;6228637;28;20628;-51
2021/04/02 05:20:16;;;;;;;9.83;8.83;;;;;;;6.68;63.86;102254.97;6226572;28;20477;-48
2021/04/02 05:23:36;;;;;;;9.50;8.53;;;;;;;6.70;63.03;102258.47;6233561;28;20252;-53
2021/04/02 05:26:57;;;;;;;8.63;7.83;;;;;;;6.73;62.74;102262.91;6239836;28;20765;-51
2021/04/02 05:30:20;;;;;;;10.73;7.73;;;;;;;6.63;62.93;102260.84;6222400;28;20517;-52
2021/04/02 05:33:41;;;;;;;14.00;9.97;;;;;;;6.71;62.19;102264.56;6227347;28;20312;-50
2021/04/02 05:37:01;;;;;;;8.47;7.57;;;;;;;6.66;62.29;102266.13;6217568;28;20232;-51
2021/04/02 05:40:21;;;;;;;11.00;7.30;;;;;;;6.59;63.30;102265.06;6229549;28;20236;-49
2021/04/02 05:43:46;;;;;;;8.73;5.93;;;;;;;6.45;62.54;102267.22;6227588;28;20237;-50
2021/04/02 05:47:09;;;;;;;11.87;5.73;;;;;;;6.30;63.22;102272.81;6237224;28;20347;-55
2021/04/02 05:50:32;;;;;;;10.27;7.90;;;;;;;6.06;64.01;102282.34;6238066;28;20229;-47
2021/04/02 05:53:54;;;;;;;10.73;6.77;;;;;;;6.03;64.34;102283.13;6225112;28;20228;-50
2021/04/02 05:57:16;;;;;;;7.43;6.00;;;;;;;6.23;63.32;102280.31;6227301;28;20237;-51
2021/04/02 06:00:38;;;;;;;8.93;5.83;;;;;;;6.26;63.27;102278.72;6220627;28;20245;-52
2021/04/02 06:04:00;;;;;;;11.00;6.27;;;;;;;6.48;62.80;102267.31;6212515;28;20609;-48
2021/04/02 06:07:20;;;;;;;8.33;5.33;;;;;;;6.68;62.02;102272.22;6240127;28;21015;-50
2021/04/02 06:10:41;;;;;;;9.50;5.97;;;;;;;6.81;61.56;102266.56;6233879;28;20232;-54
2021/04/02 06:14:01;;;;;;;18.93;8.67;;;;;;;6.93;61.23;102258.28;6239410;28;20248;-48
2021/04/02 06:17:21;;;;;;;8.67;6.00;;;;;;;7.44;60.02;102260.59;6230014;28;20244;-51
2021/04/02 06:20:45;;;;;;;6.87;5.50;;;;;;;7.52;59.47;102260.75;6219954;28;20233;-52
2021/04/02 06:24:06;;;;;;;8.50;5.97;;;;;;;7.78;58.76;102263.19;6236607;28;20819;-51
2021/04/02 06:27:29;;;;;;;9.47;5.13;;;;;;;7.52;59.68;102263.34;6231295;28;20240;-51
2021/04/02 06:30:56;;;;;;;10.73;5.77;;;;;;;7.50;59.27;102262.44;6224588;28;20324;-53
2021/04/02 06:34:16;;;;;;;8.90;4.80;;;;;;;7.65;58.82;102265.44;6239416;28;20256;-50
2021/04/02 06:37:38;;;;;;;6.93;4.70;;;;;;;7.67;59.30;102253.38;6218609;28;20232;-50
2021/04/02 06:41:00;;;;;;;9.17;5.70;;;;;;;7.79;58.46;102258.03;6226899;28;20229;-49
2021/04/02 06:44:23;;;;;;;6.43;4.33;;;;;;;7.73;58.07;102251.81;6215466;28;20233;-52
2021/04/02 06:47:45;;;;;;;6.13;5.00;;;;;;;7.58;58.61;102249.69;6240030;28;20236;-49
2021/04/02 06:51:12;;;;;;;5.63;4.40;;;;;;;7.93;58.23;102260.97;6239096;28;20802;-53
2021/04/02 06:54:34;;;;;;;9.37;4.90;;;;;;;7.73;58.27;102257.00;6225844;28;20237;-50
2021/04/02 06:57:56;;;;;;;26.27;8.53;;;;;;;8.12;57.86;102244.13;6214988;28;20225;-52
2021/04/02 07:01:17;;;;;;;13.63;5.83;;;;;;;8.05;58.28;102250.88;6225564;28;20546;-50
2021/04/02 07:04:40;;;;;;;12.70;6.80;;;;;;;8.22;57.89;102248.72;6240135;28;20236;-52
2021/04/02 07:08:03;;;;;;;11.33;6.30;;;;;;;8.32;57.59;102241.13;6239317;28;20319;-54
2021/04/02 07:11:26;;;;;;;7.03;4.30;;;;;;;8.47;57.29;102237.19;6225022;28;20225;-50
2021/04/02 07:14:48;;;;;;;9.80;5.03;;;;;;;8.29;57.22;102235.00;6235579;28;20311;-52
2021/04/02 07:18:12;;;;;;;9.60;4.73;;;;;;;8.50;56.33;102241.56;6239370;28;20232;-56
2021/04/02 07:21:34;;;;;;;5.40;3.67;;;;;;;7.95;57.82;102242.84;6225131;28;20356;-49
2021/04/02 07:24:55;;;;;;;5.80;3.87;;;;;;;8.06;57.55;102241.38;6240536;28;20264;-52
2021/04/02 07:28:17;;;;;;;7.83;4.43;;;;;;;7.95;58.21;102242.84;6234250;28;20320;-49
2021/04/02 07:31:38;;;;;;;9.03;4.60;;;;;;;8.02;57.50;102240.44;6235300;28;20256;-49
2021/04/02 07:34:59;;;;;;;5.83;3.83;;;;;;;7.83;58.29;102238.22;6243793;28;20229;-54
2021/04/02 07:38:25;;;;;;;7.03;3.60;;;;;;;8.26;56.43;102228.91;6219252;28;20229;-51
2021/04/02 07:41:49;;;;;;;7.00;3.73;;;;;;;8.32;55.90;102223.84;6230554;28;20241;-52
2021/04/02 07:45:11;;;;;;;7.10;3.10;;;;;;;8.26;55.75;102218.53;6237670;28;20237;-52
2021/04/02 07:48:31;;;;;;;9.77;4.30;;;;;;;7.98;56.45;102212.66;6218647;28;20241;-54
2021/04/02 07:51:51;;;;;;;8.30;4.30;;;;;;;8.23;56.16;102208.91;6218990;28;20324;-50
2021/04/02 07:55:18;;;;;;;13.23;3.93;;;;;;;8.25;56.60;102204.63;6218807;28;20260;-54
2021/04/02 07:58:41;;;;;;;10.57;3.90;;;;;;;8.98;54.62;102193.22;6218799;28;20229;-52
2021/04/02 08:02:05;;;;;;;9.50;4.30;;;;;;;9.25;53.11;102183.34;6237311;28;20284;-50
2021/04/02 08:05:25;;;;;;;15.90;5.90;;;;;;;9.16;53.15;102180.56;6242513;28;20874;-49
2021/04/02 08:08:48;;;;;;;13.33;4.73;;;;;;;9.29;52.84;102183.41;6232853;28;20249;-52
2021/04/02 08:12:10;;;;;;;12.57;4.13;;;;;;;9.39;52.27;102183.59;6233574;28;20224;-54
2021/04/02 08:15:30;;;;;;;11.33;3.43;;;;;;;9.65;51.52;102167.53;6241926;28;20610;-51
2021/04/02 08:19:02;;;;;;;9.70;3.30;;;;;;;9.82;50.96;102168.69;6232496;28;20246;-49
2021/04/02 08:22:25;;;;;;;19.67;5.23;;;;;;;9.01;53.13;102173.34;6234839;28;20251;-50
2021/04/02 08:25:46;;;;;;;7.07;3.83;;;;;;;8.80;53.20;102171.25;6241672;28;20236;-53
2021/04/02 08:29:08;;;;;;;10.50;3.00;;;;;;;9.49;51.50;102166.41;6224945;28;20243;-54
2021/04/02 08:32:32;;;;;;;9.50;3.03;;;;;;;9.75;50.20;102160.75;6230815;28;20637;-53
2021/04/02 08:35:53;;;;;;;12.40;4.13;;;;;;;9.72;50.82;102179.81;6237332;28;20320;-54
2021/04/02 08:39:17;;;;;;;8.37;3.00;;;;;;;9.70;50.24;102172.84;6242254;28;20523;-55
2021/04/02 08:42:38;;;;;;;9.97;2.70;;;;;;;9.58;50.69;102169.19;6237829;28;20232;-54
2021/04/02 08:45:58;;;;;;;12.00;4.03;;;;;;;9.90;50.53;102171.41;6221409;28;20240;-57
2021/04/02 08:49:19;;;;;;;12.93;3.57;;;;;;;9.83;50.49;102180.00;6239960;28;20233;-53
2021/04/02 08:52:40;;;;;;;10.83;3.20;;;;;;;9.21;51.99;102181.53;6229305;28;20229;-52
2021/04/02 08:56:01;;;;;;;12.23;4.33;;;;;;;9.31;52.06;102182.59;6223896;28;20228;-53
2021/04/02 08:59:21;;;;;;;14.90;3.67;;;;;;;9.27;52.42;102179.03;6239364;28;20240;-51
2021/04/02 09:02:41;;;;;;;10.23;2.87;;;;;;;9.18;51.79;102176.28;6241116;28;20319;-54
2021/04/02 09:06:02;;;;;;;14.63;3.10;;;;;;;9.12;52.44;102181.34;6237773;28;20240;-53
2021/04/02 09:09:27;;;;;;;12.43;3.47;;;;;;;9.38;51.95;102183.56;6232396;28;20229;-53
2021/04/02 09:12:48;;;;;;;12.80;4.80;;;;;;;9.13;52.19;102190.03;6217218;28;20228;-53
2021/04/02 09:16:11;;;;;;;7.83;3.13;;;;;;;8.59;53.99;102184.66;6236550;28;20232;-52
2021/04/02 09:19:33;;;;;;;11.17;2.97;;;;;;;9.00;52.71;102196.72;6233305;28;20249;-54
2021/04/02 09:22:54;;;;;;;9.53;3.83;;;;;;;9.14;52.05;102182.25;6239504;28;20225;-52
2021/04/02 09:26:16;;;;;;;18.60;4.37;;;;;;;8.94;52.05;102174.09;6237344;28;20233;-53
2021/04/02 09:29:37;;;;;;;6.83;4.10;;;;;;;8.84;51.87;102179.94;6226028;28;20337;-54
2021/04/02 09:32:58;;;;;;;12.37;3.93;;;;;;;9.15;51.58;102167.53;6239683;28;20244;-52
2021/04/02 09:36:20;;;;;;;20.73;4.17;;;;;;;9.37;51.09;102174.03;6241114;28;20236;-54
2021/04/02 09:39:41;;;;;;;10.70;3.60;;;;;;;9.39;50.48;102159.31;6235295;28;20244;-52
2021/04/02 09:43:04;;;;;;;10.23;3.10;;;;;;;9.46;50.28;102151.66;6231192;28;20232;-54
2021/04/02 09:46:29;;;;;;;18.00;3.83;;;;;;;9.24;50.80;102142.59;6235127;28;20633;-53
2021/04/02 09:49:51;;;;;;;11.63;4.67;;;;;;;9.20;50.73;102166.78;6236071;28;20224;-56
2021/04/02 09:53:11;;;;;;;16.33;4.90;;;;;;;9.36;50.27;102148.84;6240088;28;20236;-54
2021/04/02 09:56:32;;;;;;;9.53;4.53;;;;;;;9.27;51.04;102160.84;6238017;28;20323;-49
2021/04/02 09:59:53;;;;;;;12.37;5.07;;;;;;;9.21;51.66;102159.88;6238071;28;20228;-51
2021/04/02 10:03:14;;;;;;;12.73;4.57;;;;;;;9.10;52.29;102151.00;6235039;28;20245;-55
2021/04/02 10:06:36;;;;;;;8.37;4.20;;;;;;;9.31;51.44;102150.50;6239021;28;20249;-55
2021/04/02 10:09:56;;;;;;;12.83;4.67;;;;;;;9.20;51.66;102151.19;6229564;28;20248;-47
2021/04/02 10:13:16;;;;;;;12.53;4.33;;;;;;;9.26;52.06;102140.88;6229226;28;20285;-48
2021/04/02 10:16:37;;;;;;;13.37;4.50;;;;;;;9.44;50.98;102139.44;6239796;28;20233;-51
2021/04/02 10:19:58;;;;;;;12.17;4.57;;;;;;;9.60;50.82;102141.47;6228258;28;20237;-55
2021/04/02 10:23:18;;;;;;;7.80;3.43;;;;;;;9.10;51.98;102156.19;6215854;28;20237;-52
2021/04/02 10:26:39;;;;;;;14.87;5.70;;;;;;;9.08;52.31;102150.97;6229262;28;20237;-49
2021/04/02 10:29:59;;;;;;;8.03;3.67;;;;;;;9.21;51.74;102147.75;6223728;28;20659;-53
2021/04/02 10:33:21;;;;;;;16.80;5.63;;;;;;;9.07;51.98;102141.41;6239564;28;20612;-53
2021/04/02 10:36:41;;;;;;;12.13;4.43;;;;;;;9.07;52.43;102144.00;6230655;28;20233;-52
2021/04/02 10:40:02;;;;;;;10.17;2.97;;;;;;;9.23;52.22;102135.66;6204919;28;20233;-53
2021/04/02 10:43:23;;;;;;;11.07;3.90;;;;;;;8.74;52.67;102139.91;6236256;28;20236;-52
2021/04/02 10:46:43;;;;;;;6.33;2.80;;;;;;;8.86;52.60;102137.56;6237140;28;20685;-54
2021/04/02 10:50:06;;;;;;;15.10;4.47;;;;;;;8.79;53.60;102119.25;6239470;28;20636;-50
2021/04/02 10:53:26;;;;;;;9.37;5.67;;;;;;;9.00;52.91;102127.44;6217426;28;20245;-51
2021/04/02 10:56:47;;;;;;;7.07;3.27;;;;;;;8.81;53.20;102131.41;6241704;28;20240;-51
2021/04/02 11:00:09;;;;;;;18.57;4.87;;;;;;;9.40;52.57;102119.44;6241770;28;25811;-50
2021/04/02 11:03:30;;;;;;;10.57;4.20;;;;;;;9.33;52.13;102115.03;6215224;28;20229;-52
2021/04/02 11:06:51;;;;;;;11.17;5.27;;;;;;;9.52;51.28;102106.66;6244607;28;20571;-52
2021/04/02 11:10:13;;;;;;;7.50;2.90;;;;;;;9.40;51.21;102109.03;6235881;28;20232;-50
2021/04/02 11:13:34;;;;;;;11.67;3.13;;;;;;;9.51;51.37;102122.25;6221940;28;20241;-50
2021/04/02 11:16:54;;;;;;;10.17;3.57;;;;;;;9.40;51.84;102107.34;6233907;28;20323;-53
2021/04/02 11:20:18;;;;;;;11.53;4.53;;;;;;;9.41;52.06;102108.22;6236606;28;20225;-53
2021/04/02 11:23:39;;;;;;;13.33;3.90;;;;;;;9.48;51.82;102093.56;6220024;28;20233;-55
2021/04/02 11:27:00;;;;;;;15.83;4.73;;;;;;;9.61;51.58;102083.38;6217444;28;20237;-49
2021/04/02 11:30:21;;;;;;;10.47;3.50;;;;;;;9.26;52.24;102075.91;6224875;28;20596;-54
2021/04/02 11:33:42;;;;;;;9.83;3.53;;;;;;;9.53;51.64;102077.19;6222839;28;20229;-55
2021/04/02 11:37:03;;;;;;;10.43;3.80;;;;;;;9.27;51.60;102074.19;6232224;28;20524;-52
2021/04/02 11:40:24;;;;;;;10.00;4.40;;;;;;;9.25;50.99;102055.09;6236295;28;20220;-50
2021/04/02 11:43:45;;;;;;;13.23;3.90;;;;;;;9.50;49.94;102063.25;6242525;28;20240;-53
2021/04/02 11:47:05;;;;;;;7.17;3.60;;;;;;;9.51;50.93;102058.09;6238815;28;20228;-49
2021/04/02 11:50:26;;;;;;;7.63;3.37;;;;;;;9.61;50.50;102070.38;6243331;28;20252;-53
2021/04/02 11:53:46;;;;;;;6.37;2.50;;;;;;;9.47;50.83;102074.50;6240275;28;20232;-54
2021/04/02 11:57:08;;;;;;;10.00;4.20;;;;;;;9.16;50.73;102060.16;6220126;28;20328;-52
2021/04/02 12:00:29;;;;;;;9.87;2.93;;;;;;;9.51;49.50;102052.91;6224026;28;20244;-49
2021/04/02 12:03:50;;;;;;;9.13;3.43;;;;;;;9.55;50.03;102059.88;6243306;28;20228;-52
2021/04/02 12:07:10;;;;;;;13.53;3.77;;;;;;;9.45;50.14;102048.47;6243512;28;20233;-54
2021/04/02 12:10:31;;;;;;;15.10;5.70;;;;;;;9.62;50.00;102056.53;6222204;28;20245;-53
2021/04/02 12:13:52;;;;;;;7.10;2.93;;;;;;;9.23;51.78;102057.66;6243296;28;20240;-52
2021/04/02 12:17:13;;;;;;;11.57;3.77;;;;;;;9.03;52.05;102072.94;6242656;28;20256;-51
2021/04/02 12:20:33;;;;;;;8.90;3.80;;;;;;;9.32;50.37;102051.72;6227902;28;20257;-50
2021/04/02 12:23:54;;;;;;;7.40;2.70;;;;;;;9.33;50.23;102057.81;6243347;28;20264;-51
2021/04/02 12:27:14;;;;;;;8.60;3.27;;;;;;;9.41;50.35;102038.00;6236637;28;20593;-49
2021/04/02 12:30:37;;;;;;;12.93;3.07;;;;;;;9.44;51.26;102032.84;6240075;28;20228;-50
2021/04/02 12:33:57;;;;;;;10.00;2.67;;;;;;;9.12;54.49;102037.56;6232209;28;20503;-54
2021/04/02 12:37:18;;;;;;;5.27;2.40;;;;;;;9.66;54.36;102027.09;6239429;28;20236;-51
2021/04/02 12:40:39;;;;;;;7.10;2.37;;;;;;;9.76;54.33;102007.28;6241499;28;20241;-56
2021/04/02 12:43:59;;;;;;;5.50;2.40;;;;;;;10.07;53.10;102012.03;6241627;28;20233;-51
2021/04/02 12:47:21;;;;;;;9.57;2.87;;;;;;;10.00;53.34;102011.97;6240091;28;20614;-55
2021/04/02 12:50:41;;;;;;;9.77;3.43;;;;;;;10.09;53.14;102005.13;6242172;28;20665;-51
2021/04/02 12:54:02;;;;;;;6.10;2.60;;;;;;;9.35;54.64;102015.41;6241454;28;20239;-52
2021/04/02 12:57:22;;;;;;;5.23;2.87;;;;;;;9.50;54.09;102008.66;6231107;28;20594;-50
2021/04/02 13:00:43;;;;;;;7.63;3.37;;;;;;;9.48;54.57;102000.84;6239059;28;20252;-52
2021/04/02 13:04:04;;;;;;;9.27;3.10;;;;;;;9.69;54.16;102004.59;6235297;28;20347;-52
2021/04/02 13:07:25;;;;;;;8.57;2.93;;;;;;;9.59;54.64;101994.06;6214579;28;20559;-56
2021/04/02 13:10:45;;;;;;;9.27;3.87;;;;;;;9.88;54.45;101997.91;6241399;28;20950;-52
2021/04/02 13:14:07;;;;;;;9.00;4.57;;;;;;;10.22;53.54;102001.81;6222776;28;20232;-52
2021/04/02 13:17:27;;;;;;;4.97;2.10;;;;;;;9.74;54.99;101997.72;6240896;28;20499;-55
2021/04/02 13:20:49;;;;;;;10.63;3.27;;;;;;;9.78;55.32;101999.53;6235632;28;20228;-50
2021/04/02 13:24:09;;;;;;;9.33;3.50;;;;;;;9.70;54.87;102004.63;6241558;28;20228;-52
2021/04/02 13:27:30;;;;;;;9.43;3.60;;;;;;;9.45;56.29;101991.25;6232612;28;20686;-50
2021/04/02 13:30:51;;;;;;;10.90;3.47;;;;;;;9.26;56.90;101999.66;6224342;28;20228;-54
2021/04/02 13:34:12;;;;;;;10.83;3.10;;;;;;;9.16;57.96;101997.75;6241669;28;20220;-55
2021/04/02 13:37:33;;;;;;;11.50;3.30;;;;;;;9.22;58.21;102001.31;6226918;28;20839;-51
2021/04/02 13:40:53;;;;;;;6.93;2.80;;;;;;;9.43;57.70;102005.09;6221473;28;20224;-52
2021/04/02 13:44:14;;;;;;;9.17;2.93;;;;;;;9.04;59.01;102004.50;6233529;28;20252;-54
2021/04/02 13:47:34;;;;;;;10.60;4.73;;;;;;;8.91;60.73;102001.69;6223382;28;20595;-50
2021/04/02 13:50:54;;;;;;;9.07;3.80;;;;;;;9.10;60.51;101993.34;6230638;28;20522;-52
2021/04/02 13:54:16;;;;;;;7.83;3.80;;;;;;;9.14;60.02;101995.13;6216770;28;20229;-55
2021/04/02 13:57:37;;;;;;;8.33;2.97;;;;;;;8.94;60.70;101993.97;6217574;28;20766;-54
2021/04/02 14:00:58;;;;;;;5.87;3.10;;;;;;;9.12;60.66;101986.44;6227079;28;20520;-55
2021/04/02 14:04:18;;;;;;;9.17;2.93;;;;;;;9.08;59.93;101982.06;6230994;28;20356;-53
2021/04/02 14:07:39;;;;;;;5.90;2.50;;;;;;;9.20;59.43;101983.97;6240826;28;20236;-53
2021/04/02 14:11:01;;;;;;;5.80;2.80;;;;;;;8.98;60.22;101973.25;6238511;28;20228;-54
2021/04/02 14:14:21;;;;;;;9.17;3.80;;;;;;;9.25;59.54;101990.13;6239722;28;20232;-51
2021/04/02 14:17:42;;;;;;;9.63;4.17;;;;;;;9.07;60.51;101982.88;6236060;28;22345;-54
2021/04/02 14:21:03;;;;;;;11.40;4.30;;;;;;;9.35;60.39;101975.53;6233436;28;20262;-49
2021/04/02 14:24:24;;;;;;;11.77;3.10;;;;;;;8.97;61.14;101968.00;6234063;28;20252;-53
2021/04/02 14:27:46;;;;;;;11.30;3.43;;;;;;;8.75;61.71;101977.19;6236605;28;20257;-53
2021/04/02 14:31:06;;;;;;;6.57;3.93;;;;;;;9.01;61.29;101968.06;6225322;28;20622;-51
2021/04/02 14:34:26;;;;;;;9.93;5.60;;;;;;;9.57;59.63;101961.97;6245923;28;20315;-53
2021/04/02 14:37:47;;;;;;;8.53;3.37;;;;;;;9.51;59.14;101959.28;6237608;28;20233;-50
2021/04/02 14:41:08;;;;;;;10.70;4.50;;;;;;;9.50;58.58;101961.84;6227525;28;20227;-53
2021/04/02 14:44:29;;;;;;;8.40;4.13;;;;;;;9.66;59.00;101949.06;6221149;28;20602;-54
2021/04/02 14:47:52;;;;;;;7.43;3.60;;;;;;;9.52;59.29;101950.63;6231223;28;20260;-53
2021/04/02 14:51:12;;;;;;;13.40;4.57;;;;;;;9.35;60.02;101955.59;6244095;28;20241;-51
2021/04/02 14:54:32;;;;;;;9.10;3.57;;;;;;;9.72;58.83;101944.81;6245356;28;20240;-51
2021/04/02 14:57:53;;;;;;;9.67;4.80;;;;;;;9.53;59.75;101948.91;6222846;28;20229;-53
2021/04/02 15:01:15;;;;;;;11.53;5.17;;;;;;;9.43;60.88;101935.78;6237159;28;20260;-50
2021/04/02 15:04:36;;;;;;;8.33;5.07;;;;;;;9.95;59.73;101943.34;6241832;28;20228;-54
2021/04/02 15:07:57;;;;;;;11.07;4.30;;;;;;;9.71;59.52;101943.91;6220106;28;20768;-53
2021/04/02 15:11:17;;;;;;;10.90;5.70;;;;;;;9.75;60.07;101937.03;6233096;28;20232;-53
2021/04/02 15:14:37;;;;;;;13.03;6.13;;;;;;;9.25;61.09;101933.81;6235927;28;20560;-52
2021/04/02 15:17:59;;;;;;;10.23;4.13;;;;;;;9.62;59.91;101931.69;6243940;28;20248;-54
2021/04/02 15:21:20;;;;;;;11.40;4.63;;;;;;;9.90;58.73;101916.41;6225863;28;20229;-53
2021/04/02 15:24:40;;;;;;;12.77;5.87;;;;;;;10.02;58.09;101919.16;6244805;28;20570;-51
2021/04/02 15:28:01;;;;;;;12.10;4.97;;;;;;;10.00;58.11;101901.75;6217634;28;20233;-54
2021/04/02 15:31:22;;;;;;;17.03;6.30;;;;;;;10.24;56.93;101911.56;6233477;28;20228;-51
2021/04/02 15:34:43;;;;;;;14.13;4.60;;;;;;;10.54;55.74;101902.31;6244065;28;20224;-53
2021/04/02 15:38:04;;;;;;;13.93;4.53;;;;;;;10.67;55.00;101898.94;6235356;28;20237;-55
2021/04/02 15:41:24;;;;;;;14.53;6.17;;;;;;;10.17;56.88;101901.94;6229337;28;20228;-50
2021/04/02 15:44:46;;;;;;;11.17;5.27;;;;;;;10.44;55.58;101899.63;6243279;28;20606;-50
2021/04/02 15:48:07;;;;;;;7.40;4.27;;;;;;;10.38;56.27;101886.56;6226096;28;20240;-50
2021/04/02 15:51:28;;;;;;;12.00;4.77;;;;;;;10.28;56.39;101886.44;6228625;28;20236;-53
2021/04/02 15:54:48;;;;;;;17.83;4.83;;;;;;;10.72;55.67;101892.06;6235221;28;20252;-55
2021/04/02 15:58:09;;;;;;;9.10;4.87;;;;;;;10.22;56.90;101882.91;6215651;28;20229;-50
2021/04/02 16:01:29;;;;;;;14.40;6.43;;;;;;;10.17;56.64;101889.78;6235140;28;20237;-51
2021/04/02 16:04:50;;;;;;;13.93;6.27;;;;;;;10.22;56.26;101876.84;6220699;28;20229;-48
2021/04/02 16:08:12;;;;;;;17.37;6.60;;;;;;;10.31;56.36;101871.72;6241911;28;20252;-53
2021/04/02 16:11:33;;;;;;;16.33;6.33;;;;;;;10.72;55.32;101868.59;6219305;28;20273;-53
2021/04/02 16:14:53;;;;;;;18.30;6.83;;;;;;;10.55;54.76;101862.41;6196397;28;20525;-48